sensor_id;sensor_type;location;lat;lon;timestamp;pressure;altitude;pressure_sealevel;temperature;humidity
30081;BME280;16902;50.816;12.828;2023-06-04T00:02:15;98177.94;;;5.12;100.00
30081;BME280;16902;50.816;12.828;2023-06-04T00:07:17;98176.16;;;5.03;100.00
30081;BME280;16902;50.816;12.828;2023-06-04T00:12:19;98173.31;;;4.96;100.00
30081;BME280;16902;50.816;12.828;2023-06-04T00:17:21;98169.38;;;4.92;100.00
30081;BME280;16902;50.816;12.828;2023-06-04T00:22:24;98161.91;;;4.89;100.00
30081;BME280;16902;50.816;12.828;2023-06-04T00:27:26;98158.63;;;4.77;100.00
30081;BME280;16902;50.816;12.828;2023-06-04T00:32:27;98160.63;;;4.74;100.00
30081;BME280;16902;50.816;12.828;2023-06-04T00:37:29;98153.22;;;4.80;100.00
30081;BME280;16902;50.816;12.828;2023-06-04T00:42:32;98144.50;;;4.72;100.00
30081;BME280;16902;50.816;12.828;2023-06-04T00:47:33;98146.53;;;4.68;100.00
30081;BME280;16902;50.816;12.828;2023-06-04T00:52:35;98138.13;;;4.66;100.00
30081;BME280;16902;50.816;12.828;2023-06-04T00:57:38;98137.28;;;4.56;100.00
30081;BME280;16902;50.816;12.828;2023-06-04T01:02:41;98140.09;;;4.43;100.00
30081;BME280;16902;50.816;12.828;2023-06-04T01:07:45;98142.78;;;4.32;100.00
30081;BME280;16902;50.816;12.828;2023-06-04T01:12:48;98138.66;;;4.20;100.00
30081;BME280;16902;50.816;12.828;2023-06-04T01:17:54;98132.97;;;4.16;100.00
30081;BME280;16902;50.816;12.828;2023-06-04T01:28:36;98127.09;;;4.14;100.00
30081;BME280;16902;50.816;12.828;2023-06-04T01:33:38;98133.84;;;4.05;100.00
30081;BME280;16902;50.816;12.828;2023-06-04T01:38:41;98126.78;;;3.98;100.00
30081;BME280;16902;50.816;12.828;2023-06-04T01:43:43;98134.22;;;4.01;100.00
30081;BME280;16902;50.816;12.828;2023-06-04T01:48:45;98141.41;;;3.97;100.00
30081;BME280;16902;50.816;12.828;2023-06-04T01:53:50;98145.06;;;3.95;100.00
30081;BME280;16902;50.816;12.828;2023-06-04T01:58:52;98139.03;;;3.84;100.00
30081;BME280;16902;50.816;12.828;2023-06-04T02:03:54;98140.09;;;3.82;100.00
30081;BME280;16902;50.816;12.828;2023-06-04T02:08:56;98138.31;;;3.73;100.00
30081;BME280;16902;50.816;12.828;2023-06-04T02:13:58;98137.19;;;3.66;100.00
30081;BME280;16902;50.816;12.828;2023-06-04T02:19:00;98138.81;;;3.67;100.00
30081;BME280;16902;50.816;12.828;2023-06-04T02:24:02;98140.84;;;3.63;100.00
30081;BME280;16902;50.816;12.828;2023-06-04T02:29:04;98136.59;;;3.62;100.00
30081;BME280;16902;50.816;12.828;2023-06-04T02:34:06;98144.16;;;3.54;100.00
30081;BME280;16902;50.816;12.828;2023-06-04T02:39:07;98138.69;;;3.47;100.00
30081;BME280;16902;50.816;12.828;2023-06-04T02:44:09;98145.88;;;3.44;100.00
30081;BME280;16902;50.816;12.828;2023-06-04T02:49:11;98146.22;;;3.39;100.00
30081;BME280;16902;50.816;12.828;2023-06-04T02:54:16;98153.50;;;3.34;100.00
30081;BME280;16902;50.816;12.828;2023-06-04T02:59:18;98154.56;;;3.31;100.00
30081;BME280;16902;50.816;12.828;2023-06-04T03:04:20;98156.19;;;3.32;100.00
30081;BME280;16902;50.816;12.828;2023-06-04T03:09:22;98147.78;;;3.30;100.00
30081;BME280;16902;50.816;12.828;2023-06-04T03:14:24;98159.94;;;3.28;100.00
30081;BME280;16902;50.816;12.828;2023-06-04T03:19:35;98153.63;;;3.32;100.00
30081;BME280;16902;50.816;12.828;2023-06-04T03:24:39;98163.09;;;3.32;100.00
30081;BME280;16902;50.816;12.828;2023-06-04T03:29:41;98162.03;;;3.34;100.00
30081;BME280;16902;50.816;12.828;2023-06-04T03:34:45;98165.31;;;3.37;100.00
30081;BME280;16902;50.816;12.828;2023-06-04T03:39:47;98168.06;;;3.45;100.00
30081;BME280;16902;50.816;12.828;2023-06-04T03:44:51;98166.97;;;3.58;100.00
30081;BME280;16902;50.816;12.828;2023-06-04T03:49:54;98160.22;;;3.67;100.00
30081;BME280;16902;50.816;12.828;2023-06-04T03:54:55;98171.13;;;3.80;100.00
30081;BME280;16902;50.816;12.828;2023-06-04T03:59:58;98167.19;;;3.97;100.00
30081;BME280;16902;50.816;12.828;2023-06-04T04:05:00;98164.81;;;4.15;100.00
30081;BME280;16902;50.816;12.828;2023-06-04T04:10:03;98171.41;;;4.38;100.00
30081;BME280;16902;50.816;12.828;2023-06-04T04:15:08;98171.63;;;4.56;100.00
30081;BME280;16902;50.816;12.828;2023-06-04T04:20:11;98173.28;;;4.77;100.00
30081;BME280;16902;50.816;12.828;2023-06-04T04:25:19;98174.41;;;4.94;100.00
30081;BME280;16902;50.816;12.828;2023-06-04T04:30:21;98169.38;;;5.11;100.00
30081;BME280;16902;50.816;12.828;2023-06-04T04:35:25;98167.34;;;5.34;100.00
30081;BME280;16902;50.816;12.828;2023-06-04T04:40:31;98169.66;;;5.57;100.00
30081;BME280;16902;50.816;12.828;2023-06-04T04:45:34;98178.19;;;5.77;100.00
30081;BME280;16902;50.816;12.828;2023-06-04T04:50:37;98174.50;;;5.99;100.00
30081;BME280;16902;50.816;12.828;2023-06-04T04:55:39;98180.41;;;6.18;100.00
30081;BME280;16902;50.816;12.828;2023-06-04T05:00:42;98180.06;;;6.41;100.00
30081;BME280;16902;50.816;12.828;2023-06-04T05:05:44;98186.59;;;6.73;100.00
30081;BME280;16902;50.816;12.828;2023-06-04T05:10:47;98190.56;;;7.30;100.00
30081;BME280;16902;50.816;12.828;2023-06-04T05:15:48;98196.63;;;7.57;100.00
30081;BME280;16902;50.816;12.828;2023-06-04T05:21:00;98195.19;;;7.80;100.00
30081;BME280;16902;50.816;12.828;2023-06-04T05:26:06;98194.19;;;7.99;100.00
30081;BME280;16902;50.816;12.828;2023-06-04T05:31:09;98194.63;;;8.20;100.00
30081;BME280;16902;50.816;12.828;2023-06-04T05:36:11;98197.72;;;8.50;100.00
30081;BME280;16902;50.816;12.828;2023-06-04T05:41:20;98206.06;;;8.70;100.00
30081;BME280;16902;50.816;12.828;2023-06-04T05:46:25;98204.97;;;8.81;100.00
30081;BME280;16902;50.816;12.828;2023-06-04T05:51:28;98206.84;;;9.13;100.00
30081;BME280;16902;50.816;12.828;2023-06-04T05:56:30;98200.72;;;9.46;100.00
30081;BME280;16902;50.816;12.828;2023-06-04T06:01:33;98206.06;;;9.86;100.00
30081;BME280;16902;50.816;12.828;2023-06-04T06:06:36;98212.56;;;10.06;100.00
30081;BME280;16902;50.816;12.828;2023-06-04T06:11:38;98210.56;;;10.41;100.00
30081;BME280;16902;50.816;12.828;2023-06-04T06:16:40;98209.91;;;10.78;100.00
30081;BME280;16902;50.816;12.828;2023-06-04T06:21:43;98220.19;;;11.11;100.00
30081;BME280;16902;50.816;12.828;2023-06-04T06:26:45;98230.41;;;11.43;100.00
30081;BME280;16902;50.816;12.828;2023-06-04T06:31:49;98232.41;;;11.87;100.00
30081;BME280;16902;50.816;12.828;2023-06-04T06:36:50;98235.97;;;12.09;100.00
30081;BME280;16902;50.816;12.828;2023-06-04T06:41:52;98243.56;;;12.33;100.00
30081;BME280;16902;50.816;12.828;2023-06-04T06:46:58;98248.78;;;12.63;100.00
30081;BME280;16902;50.816;12.828;2023-06-04T06:51:59;98243.25;;;13.02;100.00
30081;BME280;16902;50.816;12.828;2023-06-04T06:57:01;98250.06;;;13.18;100.00
30081;BME280;16902;50.816;12.828;2023-06-04T07:02:05;98250.44;;;13.30;100.00
30081;BME280;16902;50.816;12.828;2023-06-04T07:07:06;98240.84;;;13.58;100.00
30081;BME280;16902;50.816;12.828;2023-06-04T07:12:08;98246.84;;;14.23;100.00
30081;BME280;16902;50.816;12.828;2023-06-04T07:17:10;98248.25;;;14.54;100.00
30081;BME280;16902;50.816;12.828;2023-06-04T07:22:12;98251.22;;;14.79;100.00
30081;BME280;16902;50.816;12.828;2023-06-04T07:27:15;98250.47;;;14.85;100.00
30081;BME280;16902;50.816;12.828;2023-06-04T07:32:17;98246.69;;;15.01;100.00
30081;BME280;16902;50.816;12.828;2023-06-04T07:37:19;98250.19;;;15.21;100.00
30081;BME280;16902;50.816;12.828;2023-06-04T07:42:21;98258.06;;;15.28;100.00
30081;BME280;16902;50.816;12.828;2023-06-04T07:47:25;98248.06;;;15.58;100.00
30081;BME280;16902;50.816;12.828;2023-06-04T07:52:26;98251.56;;;15.78;100.00
30081;BME280;16902;50.816;12.828;2023-06-04T07:57:29;98253.75;;;15.75;100.00
30081;BME280;16902;50.816;12.828;2023-06-04T08:02:31;98249.53;;;15.93;100.00
30081;BME280;16902;50.816;12.828;2023-06-04T08:07:32;98246.72;;;16.08;100.00
30081;BME280;16902;50.816;12.828;2023-06-04T08:12:34;98244.84;;;16.42;100.00
30081;BME280;16902;50.816;12.828;2023-06-04T08:17:36;98248.56;;;16.99;100.00
30081;BME280;16902;50.816;12.828;2023-06-04T08:22:38;98254.09;;;16.84;100.00
30081;BME280;16902;50.816;12.828;2023-06-04T08:27:41;98250.47;;;16.65;100.00
30081;BME280;16902;50.816;12.828;2023-06-04T08:32:43;98249.41;;;16.93;100.00
30081;BME280;16902;50.816;12.828;2023-06-04T08:37:44;98259.56;;;16.76;100.00
30081;BME280;16902;50.816;12.828;2023-06-04T08:42:46;98252.66;;;16.82;100.00
30081;BME280;16902;50.816;12.828;2023-06-04T08:47:49;98253.91;;;16.79;100.00
30081;BME280;16902;50.816;12.828;2023-06-04T08:52:54;98254.09;;;17.29;100.00
30081;BME280;16902;50.816;12.828;2023-06-04T08:57:57;98258.69;;;17.79;100.00
30081;BME280;16902;50.816;12.828;2023-06-04T09:03:01;98258.53;;;17.98;100.00
30081;BME280;16902;50.816;12.828;2023-06-04T09:08:07;98251.56;;;17.79;100.00
30081;BME280;16902;50.816;12.828;2023-06-04T09:13:10;98257.81;;;18.35;100.00
30081;BME280;16902;50.816;12.828;2023-06-04T09:18:12;98249.81;;;19.03;100.00
30081;BME280;16902;50.816;12.828;2023-06-04T09:23:14;98255.84;;;18.92;100.00
30081;BME280;16902;50.816;12.828;2023-06-04T09:28:16;98251.91;;;19.31;100.00
30081;BME280;16902;50.816;12.828;2023-06-04T09:33:19;98254.56;;;19.13;100.00
30081;BME280;16902;50.816;12.828;2023-06-04T09:38:22;98249.16;;;19.08;100.00
30081;BME280;16902;50.816;12.828;2023-06-04T09:43:24;98250.31;;;19.12;100.00
30081;BME280;16902;50.816;12.828;2023-06-04T09:48:26;98248.78;;;19.83;88.57
30081;BME280;16902;50.816;12.828;2023-06-04T09:53:28;98243.38;;;19.89;100.00
30081;BME280;16902;50.816;12.828;2023-06-04T09:58:33;98243.50;;;19.94;100.00
30081;BME280;16902;50.816;12.828;2023-06-04T10:03:36;98247.75;;;20.19;89.21
30081;BME280;16902;50.816;12.828;2023-06-04T10:08:39;98250.75;;;20.81;85.78
30081;BME280;16902;50.816;12.828;2023-06-04T10:19:18;98250.59;;;20.88;92.22
30081;BME280;16902;50.816;12.828;2023-06-04T10:24:21;98239.72;;;21.41;89.33
30081;BME280;16902;50.816;12.828;2023-06-04T10:29:25;98235.25;;;20.61;95.87
30081;BME280;16902;50.816;12.828;2023-06-04T10:34:27;98234.56;;;21.06;94.90
30081;BME280;16902;50.816;12.828;2023-06-04T10:39:30;98244.97;;;21.24;73.95
30081;BME280;16902;50.816;12.828;2023-06-04T10:44:45;98243.34;;;22.14;82.07
30081;BME280;16902;50.816;12.828;2023-06-04T10:49:47;98238.44;;;22.06;86.48
30081;BME280;16902;50.816;12.828;2023-06-04T10:54:49;98235.22;;;22.38;81.90
30081;BME280;16902;50.816;12.828;2023-06-04T10:59:55;98238.16;;;23.24;66.09
30081;BME280;16902;50.816;12.828;2023-06-04T11:05:05;98234.44;;;22.98;70.58
30081;BME280;16902;50.816;12.828;2023-06-04T11:10:10;98238.63;;;24.02;57.50
30081;BME280;16902;50.816;12.828;2023-06-04T11:15:13;98246.13;;;28.22;43.35
30081;BME280;16902;50.816;12.828;2023-06-04T11:20:19;98241.69;;;26.69;39.51
30081;BME280;16902;50.816;12.828;2023-06-04T11:25:21;98234.91;;;26.97;42.89
30081;BME280;16902;50.816;12.828;2023-06-04T11:30:24;98238.31;;;28.78;40.12
30081;BME280;16902;50.816;12.828;2023-06-04T11:35:26;98244.19;;;28.80;37.56
30081;BME280;16902;50.816;12.828;2023-06-04T11:40:28;98247.31;;;29.68;36.02
30081;BME280;16902;50.816;12.828;2023-06-04T11:45:29;98239.09;;;31.71;34.04
30081;BME280;16902;50.816;12.828;2023-06-04T11:50:32;98237.25;;;29.41;37.38
30081;BME280;16902;50.816;12.828;2023-06-04T11:55:33;98250.53;;;29.70;35.25
30081;BME280;16902;50.816;12.828;2023-06-04T12:00:36;98240.75;;;31.81;32.82
30081;BME280;16902;50.816;12.828;2023-06-04T12:05:37;98240.69;;;32.96;32.02
30081;BME280;16902;50.816;12.828;2023-06-04T12:10:40;98255.56;;;33.42;32.62
30081;BME280;16902;50.816;12.828;2023-06-04T12:15:42;98245.81;;;31.37;29.92
30081;BME280;16902;50.816;12.828;2023-06-04T12:20:44;98250.97;;;33.52;30.06
30081;BME280;16902;50.816;12.828;2023-06-04T12:25:52;98243.19;;;31.82;31.35
30081;BME280;16902;50.816;12.828;2023-06-04T12:30:54;98259.97;;;33.30;30.58
30081;BME280;16902;50.816;12.828;2023-06-04T12:35:56;98243.31;;;33.45;29.35
30081;BME280;16902;50.816;12.828;2023-06-04T12:40:58;98239.88;;;35.44;28.61
30081;BME280;16902;50.816;12.828;2023-06-04T12:46:00;98251.06;;;36.42;27.61
30081;BME280;16902;50.816;12.828;2023-06-04T12:51:01;98252.09;;;37.51;25.44
30081;BME280;16902;50.816;12.828;2023-06-04T12:56:03;98241.13;;;35.26;28.32
30081;BME280;16902;50.816;12.828;2023-06-04T13:01:05;98238.75;;;34.74;28.16
30081;BME280;16902;50.816;12.828;2023-06-04T13:06:07;98238.66;;;37.71;26.72
30081;BME280;16902;50.816;12.828;2023-06-04T13:11:10;98233.09;;;34.03;28.16
30081;BME280;16902;50.816;12.828;2023-06-04T13:16:12;98230.91;;;36.31;27.10
30081;BME280;16902;50.816;12.828;2023-06-04T13:21:15;98230.53;;;37.18;26.29
30081;BME280;16902;50.816;12.828;2023-06-04T13:26:18;98226.44;;;40.50;24.37
30081;BME280;16902;50.816;12.828;2023-06-04T13:31:20;98221.50;;;37.83;24.60
30081;BME280;16902;50.816;12.828;2023-06-04T13:36:22;98216.47;;;37.00;24.75
30081;BME280;16902;50.816;12.828;2023-06-04T13:41:23;98218.09;;;37.86;25.49
30081;BME280;16902;50.816;12.828;2023-06-04T13:46:25;98217.72;;;35.84;24.99
30081;BME280;16902;50.816;12.828;2023-06-04T13:51:27;98217.81;;;37.47;24.44
30081;BME280;16902;50.816;12.828;2023-06-04T13:56:31;98213.47;;;39.36;24.79
30081;BME280;16902;50.816;12.828;2023-06-04T14:01:33;98210.09;;;40.04;21.90
30081;BME280;16902;50.816;12.828;2023-06-04T14:06:35;98213.78;;;40.61;22.34
30081;BME280;16902;50.816;12.828;2023-06-04T14:11:38;98208.94;;;40.28;21.67
30081;BME280;16902;50.816;12.828;2023-06-04T14:16:40;98204.16;;;40.71;21.90
30081;BME280;16902;50.816;12.828;2023-06-04T14:21:43;98203.97;;;39.88;22.34
30081;BME280;16902;50.816;12.828;2023-06-04T14:26:45;98193.34;;;39.82;22.19
30081;BME280;16902;50.816;12.828;2023-06-04T14:31:47;98195.50;;;38.96;22.71
30081;BME280;16902;50.816;12.828;2023-06-04T14:36:49;98178.16;;;37.86;23.25
30081;BME280;16902;50.816;12.828;2023-06-04T14:41:51;98190.00;;;39.70;22.43
30081;BME280;16902;50.816;12.828;2023-06-04T14:46:53;98188.50;;;38.95;22.02
30081;BME280;16902;50.816;12.828;2023-06-04T14:51:55;98196.78;;;39.37;22.27
30081;BME280;16902;50.816;12.828;2023-06-04T14:56:57;98189.00;;;37.30;23.82
30081;BME280;16902;50.816;12.828;2023-06-04T15:02:00;98177.72;;;33.18;25.64
30081;BME280;16902;50.816;12.828;2023-06-04T15:07:03;98157.47;;;31.17;27.91
30081;BME280;16902;50.816;12.828;2023-06-04T15:12:05;98175.13;;;36.54;24.49
30081;BME280;16902;50.816;12.828;2023-06-04T15:17:06;98166.81;;;36.02;24.48
30081;BME280;16902;50.816;12.828;2023-06-04T15:22:09;98170.84;;;37.46;23.79
30081;BME280;16902;50.816;12.828;2023-06-04T15:27:10;98177.09;;;38.06;23.46
30081;BME280;16902;50.816;12.828;2023-06-04T15:32:12;98183.34;;;37.63;23.43
30081;BME280;16902;50.816;12.828;2023-06-04T15:37:14;98185.50;;;38.17;23.82
30081;BME280;16902;50.816;12.828;2023-06-04T15:42:16;98181.56;;;37.71;23.76
30081;BME280;16902;50.816;12.828;2023-06-04T15:47:18;98164.03;;;32.80;26.30
30081;BME280;16902;50.816;12.828;2023-06-04T15:52:21;98173.41;;;36.62;24.19
30081;BME280;16902;50.816;12.828;2023-06-04T15:57:22;98155.31;;;35.39;25.64
30081;BME280;16902;50.816;12.828;2023-06-04T16:02:24;98164.06;;;33.58;26.46
30081;BME280;16902;50.816;12.828;2023-06-04T16:07:26;98147.81;;;29.32;29.94
30081;BME280;16902;50.816;12.828;2023-06-04T16:12:28;98142.03;;;25.88;34.11
30081;BME280;16902;50.816;12.828;2023-06-04T16:17:30;98140.63;;;24.31;35.93
30081;BME280;16902;50.816;12.828;2023-06-04T16:22:32;98132.97;;;22.74;40.31
30081;BME280;16902;50.816;12.828;2023-06-04T16:27:36;98129.53;;;22.29;43.46
30081;BME280;16902;50.816;12.828;2023-06-04T16:32:38;98134.03;;;21.73;45.02
30081;BME280;16902;50.816;12.828;2023-06-04T16:37:40;98129.53;;;21.74;42.33
30081;BME280;16902;50.816;12.828;2023-06-04T16:42:42;98124.75;;;21.25;49.08
30081;BME280;16902;50.816;12.828;2023-06-04T16:47:44;98117.47;;;20.87;48.06
30081;BME280;16902;50.816;12.828;2023-06-04T16:52:46;98115.88;;;20.86;47.29
30081;BME280;16902;50.816;12.828;2023-06-04T16:57:48;98121.34;;;20.68;47.87
30081;BME280;16902;50.816;12.828;2023-06-04T17:02:50;98121.50;;;20.61;47.27
30081;BME280;16902;50.816;12.828;2023-06-04T17:07:53;98133.59;;;20.34;58.81
30081;BME280;16902;50.816;12.828;2023-06-04T17:12:55;98128.91;;;20.24;50.92
30081;BME280;16902;50.816;12.828;2023-06-04T17:17:57;98125.72;;;19.98;51.47
30081;BME280;16902;50.816;12.828;2023-06-04T17:23:02;98125.16;;;19.85;52.50
30081;BME280;16902;50.816;12.828;2023-06-04T17:28:05;98122.09;;;19.58;57.83
30081;BME280;16902;50.816;12.828;2023-06-04T17:33:07;98117.50;;;19.30;54.97
30081;BME280;16902;50.816;12.828;2023-06-04T17:38:09;98126.09;;;19.25;54.27
30081;BME280;16902;50.816;12.828;2023-06-04T17:43:11;98119.09;;;18.89;62.63
30081;BME280;16902;50.816;12.828;2023-06-04T17:48:13;98125.19;;;18.71;62.16
30081;BME280;16902;50.816;12.828;2023-06-04T17:53:15;98126.72;;;18.60;61.65
30081;BME280;16902;50.816;12.828;2023-06-04T17:58:17;98129.97;;;18.44;64.98
30081;BME280;16902;50.816;12.828;2023-06-04T18:03:19;98130.84;;;18.19;65.04
30081;BME280;16902;50.816;12.828;2023-06-04T18:08:21;98132.59;;;18.07;67.34
30081;BME280;16902;50.816;12.828;2023-06-04T18:13:23;98133.69;;;18.00;65.30
30081;BME280;16902;50.816;12.828;2023-06-04T18:18:25;98136.69;;;17.85;68.98
30081;BME280;16902;50.816;12.828;2023-06-04T18:23:27;98135.19;;;17.64;67.96
30081;BME280;16902;50.816;12.828;2023-06-04T18:28:29;98134.88;;;17.54;70.99
30081;BME280;16902;50.816;12.828;2023-06-04T18:33:31;98143.09;;;17.39;69.41
30081;BME280;16902;50.816;12.828;2023-06-04T18:38:33;98139.25;;;17.10;79.45
30081;BME280;16902;50.816;12.828;2023-06-04T18:43:37;98143.63;;;16.84;81.04
30081;BME280;16902;50.816;12.828;2023-06-04T18:48:39;98141.13;;;16.51;91.30
30081;BME280;16902;50.816;12.828;2023-06-04T18:53:41;98142.41;;;16.22;100.00
30081;BME280;16902;50.816;12.828;2023-06-04T18:58:43;98146.13;;;15.88;100.00
30081;BME280;16902;50.816;12.828;2023-06-04T19:03:51;98152.59;;;15.52;100.00
30081;BME280;16902;50.816;12.828;2023-06-04T19:08:53;98155.94;;;15.13;100.00
30081;BME280;16902;50.816;12.828;2023-06-04T19:13:55;98167.53;;;14.77;100.00
30081;BME280;16902;50.816;12.828;2023-06-04T19:18:57;98169.38;;;14.42;100.00
30081;BME280;16902;50.816;12.828;2023-06-04T19:23:59;98173.66;;;14.15;100.00
30081;BME280;16902;50.816;12.828;2023-06-04T19:29:01;98179.09;;;13.85;100.00
30081;BME280;16902;50.816;12.828;2023-06-04T19:34:03;98185.50;;;13.55;100.00
30081;BME280;16902;50.816;12.828;2023-06-04T19:39:06;98186.44;;;13.26;100.00
30081;BME280;16902;50.816;12.828;2023-06-04T19:44:08;98188.81;;;13.06;100.00
30081;BME280;16902;50.816;12.828;2023-06-04T19:49:10;98185.69;;;12.81;100.00
30081;BME280;16902;50.816;12.828;2023-06-04T19:54:11;98190.41;;;12.56;100.00
30081;BME280;16902;50.816;12.828;2023-06-04T19:59:14;98192.69;;;12.29;100.00
30081;BME280;16902;50.816;12.828;2023-06-04T20:04:16;98206.25;;;12.10;100.00
30081;BME280;16902;50.816;12.828;2023-06-04T20:09:18;98207.31;;;11.86;100.00
30081;BME280;16902;50.816;12.828;2023-06-04T20:14:20;98201.22;;;11.71;100.00
30081;BME280;16902;50.816;12.828;2023-06-04T20:19:24;98214.06;;;11.49;100.00
30081;BME280;16902;50.816;12.828;2023-06-04T20:24:26;98215.63;;;11.36;100.00
30081;BME280;16902;50.816;12.828;2023-06-04T20:29:27;98211.34;;;11.20;100.00
30081;BME280;16902;50.816;12.828;2023-06-04T20:34:29;98209.81;;;11.02;100.00
30081;BME280;16902;50.816;12.828;2023-06-04T20:39:31;98208.56;;;10.90;100.00
30081;BME280;16902;50.816;12.828;2023-06-04T20:44:33;98211.09;;;10.67;100.00
30081;BME280;16902;50.816;12.828;2023-06-04T20:49:35;98215.72;;;10.57;100.00
30081;BME280;16902;50.816;12.828;2023-06-04T20:54:37;98217.19;;;10.51;100.00
30081;BME280;16902;50.816;12.828;2023-06-04T20:59:39;98213.34;;;10.31;100.00
30081;BME280;16902;50.816;12.828;2023-06-04T21:04:40;98218.72;;;10.13;100.00
30081;BME280;16902;50.816;12.828;2023-06-04T21:09:42;98219.56;;;9.97;100.00
30081;BME280;16902;50.816;12.828;2023-06-04T21:14:44;98228.97;;;9.90;100.00
30081;BME280;16902;50.816;12.828;2023-06-04T21:19:46;98227.22;;;9.74;100.00
30081;BME280;16902;50.816;12.828;2023-06-04T21:24:47;98230.13;;;9.55;100.00
30081;BME280;16902;50.816;12.828;2023-06-04T21:29:49;98230.91;;;9.47;100.00
30081;BME280;16902;50.816;12.828;2023-06-04T21:34:51;98232.25;;;9.43;100.00
30081;BME280;16902;50.816;12.828;2023-06-04T21:39:52;98230.28;;;9.29;100.00
30081;BME280;16902;50.816;12.828;2023-06-04T21:44:55;98231.53;;;9.17;100.00
30081;BME280;16902;50.816;12.828;2023-06-04T21:49:57;98232.00;;;9.12;100.00
30081;BME280;16902;50.816;12.828;2023-06-04T21:55:00;98237.84;;;9.06;100.00
30081;BME280;16902;50.816;12.828;2023-06-04T22:00:03;98244.13;;;8.95;100.00
30081;BME280;16902;50.816;12.828;2023-06-04T22:05:13;98243.75;;;8.82;100.00
30081;BME280;16902;50.816;12.828;2023-06-04T22:10:15;98242.41;;;8.70;100.00
30081;BME280;16902;50.816;12.828;2023-06-04T22:15:17;98241.06;;;8.58;100.00
30081;BME280;16902;50.816;12.828;2023-06-04T22:20:18;98235.81;;;8.41;100.00
30081;BME280;16902;50.816;12.828;2023-06-04T22:25:20;98228.09;;;8.32;100.00
30081;BME280;16902;50.816;12.828;2023-06-04T22:30:22;98231.72;;;8.21;100.00
30081;BME280;16902;50.816;12.828;2023-06-04T22:35:23;98227.00;;;8.16;100.00
30081;BME280;16902;50.816;12.828;2023-06-04T22:40:25;98225.66;;;8.04;100.00
30081;BME280;16902;50.816;12.828;2023-06-04T22:45:27;98222.19;;;7.95;100.00
30081;BME280;16902;50.816;12.828;2023-06-04T22:50:29;98227.09;;;7.81;100.00
30081;BME280;16902;50.816;12.828;2023-06-04T22:55:30;98232.53;;;7.69;100.00
30081;BME280;16902;50.816;12.828;2023-06-04T23:00:32;98223.19;;;7.59;100.00
30081;BME280;16902;50.816;12.828;2023-06-04T23:05:34;98222.38;;;7.58;100.00
30081;BME280;16902;50.816;12.828;2023-06-04T23:10:36;98220.50;;;7.68;100.00
30081;BME280;16902;50.816;12.828;2023-06-04T23:15:38;98224.38;;;7.64;100.00
30081;BME280;16902;50.816;12.828;2023-06-04T23:20:40;98222.16;;;7.52;100.00
30081;BME280;16902;50.816;12.828;2023-06-04T23:25:41;98212.97;;;7.39;100.00
30081;BME280;16902;50.816;12.828;2023-06-04T23:30:43;98212.75;;;7.33;100.00
30081;BME280;16902;50.816;12.828;2023-06-04T23:35:45;98213.63;;;7.24;100.00
30081;BME280;16902;50.816;12.828;2023-06-04T23:40:48;98210.97;;;7.15;100.00
30081;BME280;16902;50.816;12.828;2023-06-04T23:45:49;98211.66;;;7.17;100.00
30081;BME280;16902;50.816;12.828;2023-06-04T23:50:51;98200.97;;;7.03;100.00
30081;BME280;16902;50.816;12.828;2023-06-04T23:55:53;98199.09;;;6.95;100.00
